< < Back
Terminal Aerodrome Forecast


Current Version              Previous Versions:   1  2  3  4  5  6  7  8  9  

Terminal Aerodrome Forecast

699
FTUS44 KBMX 240500
TAFBHM
TAF
KBHM 240526Z 2406/2506 00000KT P6SM SKC
     FM241600 18006KT P6SM SCT050=

Latest METAR

464
SAUS70 KWBC 242300 RRH
MTRBHM
METAR KBHM 242253Z 18007KT 10SM SCT070 BKN150 27/11 A2987 RMK AO2 SLP107
T02720106


USA.gov is the U.S. government's official web portal to all federal, state and local government web resources and services.